Time;durP1;ratioP1;P1;durP2;ratioP2;P2;SDS_P1;SDS_P2;PMS_P1;PMS_P2;Temp;Humidity;BMP_temperature;BMP_pressure;BME280_temperature;BME280_humidity;BME280_pressure;Samples;Min_cycle;Max_cycle;Signal;HPM_P1;HPM_P2
2021/04/16 00:00:18;;;;;;;10.55;6.70;;;;;;;-0.67;100.00;96678.50;1036125;28;20057;-61
2021/04/16 00:00:51;;;;;;;10.07;6.38;;;;;;;-0.65;100.00;96673.22;1028199;28;20527;-61
2021/04/16 00:01:22;;;;;;;11.32;6.93;;;;;;;-0.66;100.00;96674.97;1036048;28;20026;-61
2021/04/16 00:01:53;;;;;;;9.77;6.28;;;;;;;-0.66;100.00;96676.72;1020226;29;20067;-61
2021/04/16 00:02:23;;;;;;;11.00;6.65;;;;;;;-0.67;100.00;96675.91;1036228;28;20423;-61
2021/04/16 00:02:54;;;;;;;9.65;6.63;;;;;;;-0.67;100.00;96675.06;1024212;28;20027;-61
2021/04/16 00:03:25;;;;;;;10.60;6.60;;;;;;;-0.74;100.00;96674.56;1020158;29;20023;-61
2021/04/16 00:03:56;;;;;;;10.98;6.90;;;;;;;-0.71;100.00;96679.63;1019999;29;20023;-60
2021/04/16 00:04:27;;;;;;;11.18;6.78;;;;;;;-0.73;100.00;96672.81;1024236;29;20077;-60
2021/04/16 00:04:57;;;;;;;10.18;6.45;;;;;;;-0.77;100.00;96674.75;1020291;29;20336;-62
2021/04/16 00:05:29;;;;;;;10.07;6.35;;;;;;;-0.81;100.00;96673.25;1028132;28;20038;-60
2021/04/16 00:05:59;;;;;;;9.88;6.40;;;;;;;-0.82;100.00;96679.38;1032147;28;20026;-62
2021/04/16 00:06:30;;;;;;;10.07;5.80;;;;;;;-0.85;100.00;96671.75;1024207;29;20057;-61
2021/04/16 00:07:01;;;;;;;11.55;6.75;;;;;;;-0.90;100.00;96673.78;1024076;29;20027;-61
2021/04/16 00:07:32;;;;;;;10.93;7.00;;;;;;;-0.88;100.00;96675.38;1016148;29;20027;-62
2021/04/16 00:08:05;;;;;;;11.80;5.85;;;;;;;-0.86;100.00;96670.06;1016315;29;20031;-60
2021/04/16 00:08:37;;;;;;;11.02;7.15;;;;;;;-0.87;100.00;96673.59;1024053;29;20019;-62
2021/04/16 00:09:09;;;;;;;9.18;6.53;;;;;;;-0.89;100.00;96675.44;1032121;28;20033;-61
2021/04/16 00:09:39;;;;;;;14.95;7.22;;;;;;;-0.91;100.00;96675.53;1032034;28;20025;-61
2021/04/16 00:10:13;;;;;;;10.85;6.75;;;;;;;-0.94;100.00;96675.72;1024168;28;20023;-61
2021/04/16 00:10:47;;;;;;;10.15;7.05;;;;;;;-0.90;100.00;96676.41;1032099;28;20022;-61
2021/04/16 00:11:21;;;;;;;11.73;6.57;;;;;;;-0.88;100.00;96680.59;1028162;28;20033;-61
2021/04/16 00:11:52;;;;;;;12.10;6.70;;;;;;;-0.87;100.00;96678.81;1024030;29;20026;-61
2021/04/16 00:12:23;;;;;;;10.75;6.68;;;;;;;-0.90;100.00;96674.63;1021301;29;20471;-61
2021/04/16 00:12:53;;;;;;;12.43;7.13;;;;;;;-0.89;100.00;96675.44;1028083;28;20015;-61
2021/04/16 00:13:25;;;;;;;11.60;7.40;;;;;;;-0.90;100.00;96671.19;1028132;28;20019;-61
2021/04/16 00:13:55;;;;;;;12.40;7.35;;;;;;;-0.91;100.00;96672.94;1031934;28;20488;-61
2021/04/16 00:14:26;;;;;;;13.05;7.20;;;;;;;-0.92;100.00;96673.88;1032234;28;20015;-61
2021/04/16 00:14:57;;;;;;;10.82;6.60;;;;;;;-0.92;100.00;96673.00;1028103;28;20019;-61
2021/04/16 00:15:29;;;;;;;11.88;7.47;;;;;;;-0.98;100.00;96675.03;1032213;28;20018;-61
2021/04/16 00:16:00;;;;;;;10.77;7.07;;;;;;;-0.95;100.00;96666.22;1027923;28;20548;-60
2021/04/16 00:16:30;;;;;;;13.25;7.50;;;;;;;-0.98;100.00;96671.59;1028148;28;20300;-61
2021/04/16 00:17:01;;;;;;;9.90;6.68;;;;;;;-0.99;100.00;96672.53;1036230;28;20137;-60
2021/04/16 00:17:32;;;;;;;11.23;6.72;;;;;;;-0.99;100.00;96670.78;1032186;28;20025;-61
2021/04/16 00:18:05;;;;;;;10.52;6.93;;;;;;;-0.99;100.00;96669.94;1024011;28;20060;-61
2021/04/16 00:18:36;;;;;;;11.27;6.72;;;;;;;-1.00;100.00;96668.25;1020273;29;20059;-61
2021/04/16 00:19:06;;;;;;;10.90;6.72;;;;;;;-1.01;100.00;96663.94;1028114;28;20114;-60
2021/04/16 00:19:37;;;;;;;9.90;7.05;;;;;;;-1.02;100.00;96665.72;1032196;28;20029;-61
2021/04/16 00:20:09;;;;;;;11.93;6.55;;;;;;;-1.04;100.00;96672.78;1036100;28;20351;-60
2021/04/16 00:20:40;;;;;;;12.45;6.47;;;;;;;-1.05;100.00;96671.09;1032143;28;20018;-61
2021/04/16 00:21:11;;;;;;;15.68;6.65;;;;;;;-1.05;100.00;96675.47;1028114;28;20509;-60
2021/04/16 00:21:42;;;;;;;10.52;6.90;;;;;;;-1.06;100.00;96668.56;1028164;28;20559;-61
2021/04/16 00:22:13;;;;;;;11.20;7.03;;;;;;;-1.07;100.00;96669.53;1028064;28;20015;-61
2021/04/16 00:22:44;;;;;;;14.23;6.80;;;;;;;-1.08;100.00;96675.66;1028107;28;20019;-61
2021/04/16 00:23:15;;;;;;;10.90;6.60;;;;;;;-1.08;100.00;96673.03;1024005;28;20073;-61
2021/04/16 00:23:46;;;;;;;11.23;6.63;;;;;;;-1.10;100.00;96667.91;1027919;28;20026;-61
2021/04/16 00:24:17;;;;;;;10.50;7.03;;;;;;;-1.09;100.00;96668.78;1024022;29;20034;-60
2021/04/16 00:24:48;;;;;;;14.73;6.65;;;;;;;-1.10;100.00;96669.69;1024106;29;20026;-60
2021/04/16 00:25:26;;;;;;;13.27;6.95;;;;;;;-1.11;100.00;96674.06;1024087;28;20057;-61
2021/04/16 00:25:58;;;;;;;9.98;6.40;;;;;;;-1.11;100.00;96670.63;1024088;29;20036;-61
2021/04/16 00:26:28;;;;;;;11.27;6.93;;;;;;;-1.12;100.00;96679.38;1024115;29;20024;-61
2021/04/16 00:27:00;;;;;;;12.57;6.60;;;;;;;-1.13;100.00;96673.31;1036139;28;20053;-61
2021/04/16 00:27:30;;;;;;;11.27;6.20;;;;;;;-1.19;100.00;96660.63;1028185;28;20019;-61
2021/04/16 00:28:02;;;;;;;14.27;7.22;;;;;;;-1.13;100.00;96668.09;1036081;28;20253;-61
2021/04/16 00:28:32;;;;;;;11.23;6.97;;;;;;;-1.14;100.00;96672.47;1024000;28;20392;-60
2021/04/16 00:29:03;;;;;;;13.13;5.93;;;;;;;-1.17;100.00;96670.03;1032088;28;20018;-62
2021/04/16 00:29:34;;;;;;;10.25;6.32;;;;;;;-1.16;100.00;96668.28;1036236;28;20450;-61
2021/04/16 00:30:06;;;;;;;9.95;6.28;;;;;;;-1.17;100.00;96669.19;1024054;29;20024;-61
2021/04/16 00:30:39;;;;;;;11.05;6.97;;;;;;;-1.18;100.00;96665.75;1027901;28;20015;-60
2021/04/16 00:31:21;;;;;;;10.02;6.10;;;;;;;-1.19;100.00;96665.81;1028078;28;20093;-60
2021/04/16 00:31:52;;;;;;;9.07;6.15;;;;;;;-1.20;100.00;96671.94;1028107;28;20254;-60
2021/04/16 00:32:23;;;;;;;12.73;6.47;;;;;;;-1.20;100.00;96669.34;1031934;28;20018;-61
2021/04/16 00:32:54;;;;;;;9.30;6.05;;;;;;;-1.22;100.00;96669.47;1024090;29;20051;-61
2021/04/16 00:33:25;;;;;;;8.98;6.13;;;;;;;-1.21;100.00;96665.91;1024022;29;20023;-61
2021/04/16 00:33:55;;;;;;;11.88;6.88;;;;;;;-1.22;100.00;96664.25;1027879;28;20022;-60
2021/04/16 00:34:26;;;;;;;11.55;6.50;;;;;;;-1.22;100.00;96671.19;1027966;28;20075;-60
2021/04/16 00:34:57;;;;;;;13.45;6.15;;;;;;;-1.22;100.00;96666.00;1032213;28;20487;-60
2021/04/16 00:35:28;;;;;;;10.80;6.13;;;;;;;-1.23;100.00;96666.94;1024122;29;20034;-61
2021/04/16 00:35:59;;;;;;;10.07;5.88;;;;;;;-1.25;100.00;96664.41;1028105;28;20389;-59
2021/04/16 00:36:31;;;;;;;11.48;6.57;;;;;;;-1.25;100.00;96663.59;1032064;28;20507;-60
2021/04/16 00:37:01;;;;;;;10.63;6.25;;;;;;;-1.27;100.00;96666.28;1024107;28;20030;-60
2021/04/16 00:37:32;;;;;;;10.65;6.57;;;;;;;-1.27;100.00;96666.28;1028058;28;20111;-61
2021/04/16 00:38:04;;;;;;;16.15;7.50;;;;;;;-1.27;100.00;96662.81;1024027;28;20027;-61
2021/04/16 00:38:35;;;;;;;10.75;5.63;;;;;;;-1.28;100.00;96664.56;1024014;28;20027;-61
2021/04/16 00:39:06;;;;;;;12.32;6.68;;;;;;;-1.30;100.00;96663.81;1023979;29;20109;-62
2021/04/16 00:39:37;;;;;;;11.68;6.10;;;;;;;-1.30;100.00;96663.00;1020112;29;20024;-62
2021/04/16 00:40:11;;;;;;;12.00;6.85;;;;;;;-1.29;100.00;96662.88;1032052;28;20169;-62
2021/04/16 00:40:45;;;;;;;10.15;6.45;;;;;;;-1.29;100.00;96656.84;1036018;28;20014;-60
2021/04/16 00:41:19;;;;;;;9.48;6.03;;;;;;;-1.28;100.00;96672.38;1035999;28;20029;-61
2021/04/16 00:41:51;;;;;;;9.40;6.43;;;;;;;-1.29;100.00;96657.66;1032071;28;20014;-60
2021/04/16 00:42:21;;;;;;;11.48;6.35;;;;;;;-1.32;100.00;96663.06;1031940;28;20026;-62
2021/04/16 00:42:54;;;;;;;9.07;6.35;;;;;;;-1.33;100.00;96654.41;1027833;28;20027;-61
2021/04/16 00:43:27;;;;;;;8.88;6.28;;;;;;;-1.31;100.00;96658.69;1028018;28;20022;-62
2021/04/16 00:43:58;;;;;;;11.50;6.20;;;;;;;-1.31;100.00;96656.09;1023924;29;20027;-60
2021/04/16 00:44:29;;;;;;;12.63;6.47;;;;;;;-1.33;100.00;96657.00;1032058;28;20030;-61
2021/04/16 00:45:00;;;;;;;11.65;6.53;;;;;;;-1.34;100.00;96660.56;1027962;28;20085;-62
2021/04/16 00:45:31;;;;;;;12.18;6.32;;;;;;;-1.33;100.00;96658.78;1032020;28;20525;-61
2021/04/16 00:46:12;;;;;;;10.18;6.72;;;;;;;-1.35;100.00;96658.88;1031979;28;20018;-62
2021/04/16 00:46:47;;;;;;;11.63;6.60;;;;;;;-1.34;100.00;96663.16;1028008;28;20122;-61
2021/04/16 00:47:19;;;;;;;12.65;7.38;;;;;;;-1.34;100.00;96657.94;1027979;28;20027;-61
2021/04/16 00:47:51;;;;;;;10.18;6.20;;;;;;;-1.34;100.00;96655.34;1030193;28;20500;-61
2021/04/16 00:48:32;;;;;;;20.25;6.35;;;;;;;-1.34;100.00;96654.50;1029188;28;20019;-62
2021/04/16 00:49:03;;;;;;;11.02;6.68;;;;;;;-1.38;100.00;96655.59;1023995;29;20457;-60
2021/04/16 00:49:38;;;;;;;9.82;6.45;;;;;;;-1.38;100.00;96653.81;1023969;29;20027;-61
2021/04/16 00:50:13;;;;;;;11.45;6.82;;;;;;;-1.38;100.00;96653.81;1026267;28;20380;-61
2021/04/16 00:50:46;;;;;;;12.50;6.57;;;;;;;-1.38;100.00;96655.59;1028111;28;20531;-61
2021/04/16 00:51:29;;;;;;;10.02;5.70;;;;;;;-1.38;100.00;96659.03;1031958;28;20022;-62
2021/04/16 00:52:01;;;;;;;10.13;6.63;;;;;;;-1.38;100.00;96658.19;1024044;28;20259;-61
2021/04/16 00:52:32;;;;;;;9.85;6.70;;;;;;;-1.41;100.00;96651.41;1016068;29;20511;-61
2021/04/16 00:53:02;;;;;;;10.48;6.55;;;;;;;-1.40;100.00;96649.63;1031985;28;20253;-61
2021/04/16 00:53:34;;;;;;;12.10;7.10;;;;;;;-1.40;100.00;96653.06;1023897;28;20027;-61
2021/04/16 00:54:06;;;;;;;10.63;7.13;;;;;;;-1.40;100.00;96652.22;1023928;28;20019;-61
2021/04/16 00:54:39;;;;;;;10.20;6.72;;;;;;;-1.39;100.00;96651.31;1028025;28;20030;-61
2021/04/16 00:55:11;;;;;;;10.43;7.25;;;;;;;-1.38;100.00;96650.38;1032006;28;20026;-61
2021/04/16 00:55:43;;;;;;;13.93;6.70;;;;;;;-1.37;100.00;96649.47;1024029;28;20259;-60
2021/04/16 00:56:14;;;;;;;13.05;7.13;;;;;;;-1.37;100.00;96650.28;1027994;28;20030;-61
2021/04/16 00:56:46;;;;;;;11.02;7.38;;;;;;;-1.35;100.00;96648.44;1032003;28;20054;-60
2021/04/16 00:57:17;;;;;;;11.50;6.97;;;;;;;-1.35;100.00;96651.03;1023962;28;20054;-61
2021/04/16 00:57:47;;;;;;;11.45;6.97;;;;;;;-1.34;100.00;96649.31;1036074;28;20026;-61
2021/04/16 00:58:18;;;;;;;13.65;6.80;;;;;;;-1.31;100.00;96656.91;1023973;28;20058;-62
2021/04/16 00:58:49;;;;;;;10.63;7.18;;;;;;;-1.32;100.00;96647.44;1031868;28;20519;-62
2021/04/16 00:59:23;;;;;;;12.63;7.35;;;;;;;-1.30;100.00;96644.75;1032031;28;20036;-61
2021/04/16 00:59:56;;;;;;;11.40;6.95;;;;;;;-1.35;100.00;96643.22;1023953;28;20082;-61
2021/04/16 01:00:27;;;;;;;10.10;6.63;;;;;;;-1.30;100.00;96649.97;1031959;28;20480;-61
2021/04/16 01:00:59;;;;;;;13.68;7.22;;;;;;;-1.31;100.00;96643.06;1024026;29;20022;-61
2021/04/16 01:01:30;;;;;;;10.77;6.97;;;;;;;-1.31;100.00;96649.09;1023996;29;20027;-61
2021/04/16 01:02:01;;;;;;;10.05;7.32;;;;;;;-1.33;100.00;96649.19;1035978;28;20018;-61
2021/04/16 01:02:32;;;;;;;11.23;6.95;;;;;;;-1.33;100.00;96640.53;1024096;29;20019;-61
2021/04/16 01:03:05;;;;;;;11.13;6.40;;;;;;;-1.33;100.00;96643.97;1028033;28;20026;-60
2021/04/16 01:03:35;;;;;;;9.23;6.70;;;;;;;-1.35;100.00;96643.22;1028378;28;20026;-61
2021/04/16 01:04:06;;;;;;;11.15;6.72;;;;;;;-1.35;100.00;96640.63;1027951;28;20112;-60
2021/04/16 01:04:37;;;;;;;10.10;6.28;;;;;;;-1.36;100.00;96649.38;1031970;28;20098;-61
2021/04/16 01:05:09;;;;;;;9.45;6.63;;;;;;;-1.36;100.00;96640.72;1024114;29;20041;-60
2021/04/16 01:05:39;;;;;;;11.88;6.25;;;;;;;-1.38;100.00;96638.19;1032025;28;20077;-61
2021/04/16 01:06:10;;;;;;;10.82;6.68;;;;;;;-1.38;100.00;96640.78;1024033;29;20094;-60
2021/04/16 01:06:42;;;;;;;9.38;6.10;;;;;;;-1.38;100.00;96642.56;1024124;29;20023;-61
2021/04/16 01:07:13;;;;;;;12.88;6.20;;;;;;;-1.38;100.00;96640.78;1028168;28;20270;-61
2021/04/16 01:07:44;;;;;;;10.20;5.90;;;;;;;-1.37;100.00;96642.47;1032239;28;20273;-60
2021/04/16 01:08:16;;;;;;;11.63;6.30;;;;;;;-1.38;100.00;96638.19;1033216;28;20032;-62
2021/04/16 01:08:46;;;;;;;9.02;6.13;;;;;;;-1.38;100.00;96637.34;1029398;28;20022;-62
2021/04/16 01:09:17;;;;;;;11.07;5.90;;;;;;;-1.38;100.00;96637.34;1034282;28;20515;-62
2021/04/16 01:09:48;;;;;;;11.48;6.07;;;;;;;-1.36;100.00;96641.56;1029929;28;20094;-64
2021/04/16 01:10:20;;;;;;;8.80;5.35;;;;;;;-1.36;100.00;96645.91;1034035;28;20423;-62
2021/04/16 01:10:51;;;;;;;9.45;5.80;;;;;;;-1.36;100.00;96645.91;1025809;29;20291;-60
2021/04/16 01:11:22;;;;;;;9.88;5.88;;;;;;;-1.38;100.00;96643.41;1030082;28;20301;-60
2021/04/16 01:11:53;;;;;;;9.43;5.38;;;;;;;-1.37;100.00;96639.03;1026626;28;20258;-61
2021/04/16 01:12:24;;;;;;;7.93;5.47;;;;;;;-1.39;100.00;96644.34;1033948;28;20113;-60
2021/04/16 01:12:54;;;;;;;9.10;5.68;;;;;;;-1.39;100.00;96644.34;1021621;29;20020;-62
2021/04/16 01:13:25;;;;;;;10.63;6.03;;;;;;;-1.38;100.00;96640.78;1029858;28;20495;-61
2021/04/16 01:13:56;;;;;;;10.15;5.65;;;;;;;-1.38;100.00;96643.41;1030809;28;20027;-61
2021/04/16 01:14:27;;;;;;;9.70;5.50;;;;;;;-1.38;100.00;96647.78;1027212;29;20019;-60
2021/04/16 01:15:14;;;;;;;11.70;5.30;;;;;;;-1.39;100.00;96641.72;1029217;28;20114;-61
2021/04/16 01:15:52;;;;;;;10.55;5.60;;;;;;;-1.39;100.00;96644.34;1027957;28;20029;-62
2021/04/16 01:16:29;;;;;;;9.80;5.68;;;;;;;-1.39;100.00;96636.53;1027837;28;20262;-61
2021/04/16 01:17:00;;;;;;;9.02;5.78;;;;;;;-1.40;100.00;96642.66;1028022;28;20022;-61
2021/04/16 01:17:31;;;;;;;7.45;5.25;;;;;;;-1.39;100.00;96638.28;1023922;28;20315;-61
2021/04/16 01:18:15;;;;;;;11.70;5.53;;;;;;;-1.37;100.00;96639.03;1028022;28;20255;-61
2021/04/16 01:18:48;;;;;;;10.43;5.43;;;;;;;-1.38;100.00;96640.78;1023966;29;20021;-61
2021/04/16 01:19:24;;;;;;;7.97;5.43;;;;;;;-1.37;100.00;96639.03;1024022;29;20251;-62
2021/04/16 01:20:01;;;;;;;8.10;5.03;;;;;;;-1.38;100.00;96638.19;1030949;28;20829;-61
2021/04/16 01:20:33;;;;;;;7.93;4.78;;;;;;;-1.39;100.00;96639.13;1027865;28;20070;-63
2021/04/16 01:21:06;;;;;;;8.38;5.40;;;;;;;-1.40;100.00;96639.22;1019951;29;20275;-61
2021/04/16 01:21:42;;;;;;;11.35;5.90;;;;;;;-1.41;100.00;96637.50;1027939;28;20246;-61
2021/04/16 01:22:31;;;;;;;9.57;5.40;;;;;;;-1.41;100.00;96646.19;1029374;28;20259;-61
2021/04/16 01:23:13;;;;;;;11.60;5.30;;;;;;;-1.44;100.00;96641.16;1031523;28;20442;-61
2021/04/16 01:23:58;;;;;;;9.82;5.13;;;;;;;-1.49;100.00;96630.13;1035799;28;20171;-61
2021/04/16 01:24:30;;;;;;;9.32;5.13;;;;;;;-1.49;100.00;96630.13;1035823;28;20315;-61
2021/04/16 01:25:01;;;;;;;10.18;5.28;;;;;;;-1.46;100.00;96632.59;1027971;28;20034;-61
2021/04/16 01:25:31;;;;;;;9.75;5.30;;;;;;;-1.45;100.00;96636.84;1023861;29;20265;-61
2021/04/16 01:26:05;;;;;;;9.27;5.45;;;;;;;-1.46;100.00;96635.19;1031876;28;20017;-61
2021/04/16 01:26:38;;;;;;;9.88;5.13;;;;;;;-1.47;100.00;96636.09;1027840;28;20026;-61
2021/04/16 01:27:12;;;;;;;8.43;5.50;;;;;;;-1.48;100.00;96637.03;1023888;29;20346;-61
2021/04/16 01:27:42;;;;;;;9.82;5.55;;;;;;;-1.49;100.00;96635.34;1023928;29;20263;-61
2021/04/16 01:28:13;;;;;;;7.90;5.05;;;;;;;-1.47;100.00;96633.50;1027864;28;20949;-61
2021/04/16 01:28:44;;;;;;;10.68;5.07;;;;;;;-1.47;100.00;96632.66;1035849;28;20038;-61
2021/04/16 01:29:15;;;;;;;8.45;5.65;;;;;;;-1.47;100.00;96638.69;1031926;28;20399;-60
2021/04/16 01:29:46;;;;;;;10.57;5.38;;;;;;;-1.47;100.00;96635.28;1019910;29;20263;-61
2021/04/16 01:30:20;;;;;;;8.15;5.68;;;;;;;-1.46;100.00;96629.13;1031854;28;20025;-61
2021/04/16 01:30:53;;;;;;;8.93;5.40;;;;;;;-1.41;100.00;96632.31;1027695;28;20317;-61
2021/04/16 01:31:26;;;;;;;8.55;5.60;;;;;;;-1.43;100.00;96629.81;1023873;29;20102;-60
2021/04/16 01:31:57;;;;;;;8.68;5.15;;;;;;;-1.44;100.00;96638.53;1031889;28;20346;-61
2021/04/16 01:32:30;;;;;;;8.80;5.03;;;;;;;-1.45;100.00;96631.63;1031768;28;20248;-61
2021/04/16 01:33:01;;;;;;;8.82;5.05;;;;;;;-1.44;100.00;96632.50;1027803;28;20026;-59
2021/04/16 01:33:33;;;;;;;7.40;4.82;;;;;;;-1.46;100.00;96629.97;1031652;28;20639;-62
2021/04/16 01:34:03;;;;;;;8.05;5.53;;;;;;;-1.46;100.00;96629.97;1023759;29;20358;-61
2021/04/16 01:34:34;;;;;;;7.28;4.90;;;;;;;-1.46;100.00;96629.97;1019876;29;20275;-60
2021/04/16 01:35:08;;;;;;;7.70;5.50;;;;;;;-1.45;100.00;96630.81;1031657;28;20564;-60
2021/04/16 01:35:39;;;;;;;7.80;5.25;;;;;;;-1.43;100.00;96629.81;1023747;29;20030;-60
2021/04/16 01:36:12;;;;;;;8.80;5.03;;;;;;;-1.43;100.00;96624.59;1023826;28;20386;-62
2021/04/16 01:36:43;;;;;;;8.82;4.85;;;;;;;-1.44;100.00;96630.72;1023808;29;20524;-62
2021/04/16 01:37:14;;;;;;;12.20;5.78;;;;;;;-1.43;100.00;96636.78;1027720;28;20254;-61
2021/04/16 01:37:44;;;;;;;8.52;4.60;;;;;;;-1.44;100.00;96632.50;1031843;28;20480;-61
2021/04/16 01:38:15;;;;;;;9.80;4.90;;;;;;;-1.43;100.00;96634.16;1027812;28;20033;-62
2021/04/16 01:38:46;;;;;;;7.20;4.97;;;;;;;-1.41;100.00;96629.69;1019787;29;20063;-62
2021/04/16 01:39:16;;;;;;;7.75;4.93;;;;;;;-1.44;100.00;96625.53;1027668;28;20077;-61
2021/04/16 01:39:47;;;;;;;6.97;4.68;;;;;;;-1.42;100.00;96630.66;1027795;28;20397;-61
2021/04/16 01:40:18;;;;;;;7.35;4.88;;;;;;;-1.42;100.00;96630.66;1027882;28;20492;-62
2021/04/16 01:40:49;;;;;;;10.45;5.25;;;;;;;-1.41;100.00;96627.09;1019805;29;20024;-61
2021/04/16 01:41:21;;;;;;;7.05;4.50;;;;;;;-1.40;100.00;96623.59;1023782;29;20106;-62
2021/04/16 01:41:52;;;;;;;8.35;4.72;;;;;;;-1.39;100.00;96631.31;1027816;28;20026;-61
2021/04/16 01:42:23;;;;;;;9.77;4.65;;;;;;;-1.37;100.00;96636.44;1023797;29;20033;-60
2021/04/16 01:42:54;;;;;;;8.63;4.70;;;;;;;-1.38;100.00;96630.38;1019767;29;20032;-61
2021/04/16 01:43:27;;;;;;;7.10;4.75;;;;;;;-1.37;100.00;96626.84;1023642;29;20031;-61
2021/04/16 01:44:01;;;;;;;9.15;5.15;;;;;;;-1.37;100.00;96633.84;1031727;28;20472;-61
2021/04/16 01:44:32;;;;;;;6.85;4.35;;;;;;;-1.38;100.00;96627.75;1035832;28;20025;-61
2021/04/16 01:45:05;;;;;;;7.45;4.82;;;;;;;-1.37;100.00;96629.47;1023696;29;20030;-61
2021/04/16 01:45:36;;;;;;;7.78;4.45;;;;;;;-1.37;100.00;96628.63;1023747;29;20094;-61
2021/04/16 01:46:17;;;;;;;7.75;4.75;;;;;;;-1.37;100.00;96629.47;1023729;29;20304;-61
2021/04/16 01:47:00;;;;;;;8.05;4.10;;;;;;;-1.34;100.00;96628.47;1023762;29;20505;-60
2021/04/16 01:47:30;;;;;;;6.72;4.75;;;;;;;-1.34;100.00;96624.09;1023720;28;20318;-62
2021/04/16 01:48:02;;;;;;;6.45;3.95;;;;;;;-1.34;100.00;96624.09;1031764;28;20447;-62
2021/04/16 01:48:36;;;;;;;7.82;4.88;;;;;;;-1.33;100.00;96630.13;1023723;28;20034;-61
2021/04/16 01:49:06;;;;;;;8.90;4.80;;;;;;;-1.34;100.00;96628.47;1023868;28;20375;-60
2021/04/16 01:49:40;;;;;;;9.10;4.75;;;;;;;-1.34;100.00;96629.28;1025264;28;20027;-61
2021/04/16 01:50:11;;;;;;;8.45;4.38;;;;;;;-1.35;100.00;96621.56;1027806;28;20023;-61
2021/04/16 01:50:42;;;;;;;8.10;5.10;;;;;;;-1.34;100.00;96621.47;1027796;28;20460;-61
2021/04/16 01:51:16;;;;;;;6.85;4.53;;;;;;;-1.35;100.00;96622.38;1035799;28;20084;-61
2021/04/16 01:51:46;;;;;;;8.50;4.53;;;;;;;-1.35;100.00;96630.22;1031615;28;20400;-60
2021/04/16 01:52:21;;;;;;;8.38;4.50;;;;;;;-1.32;100.00;96626.59;1031694;28;20102;-61
2021/04/16 01:52:52;;;;;;;7.22;4.22;;;;;;;-1.35;100.00;96621.56;1027732;28;20019;-61
2021/04/16 01:53:23;;;;;;;7.07;4.40;;;;;;;-1.37;100.00;96626.84;1027750;28;20050;-61
2021/04/16 01:54:13;;;;;;;8.13;4.60;;;;;;;-1.37;100.00;96623.41;1023478;29;20030;-60
2021/04/16 01:54:45;;;;;;;6.07;4.30;;;;;;;-1.37;100.00;96624.25;1027643;28;20023;-61
2021/04/16 01:55:16;;;;;;;6.93;4.80;;;;;;;-1.46;100.00;96608.28;1031767;28;20027;-61
2021/04/16 01:55:54;;;;;;;7.32;4.53;;;;;;;-1.36;100.00;96614.66;1031661;28;20018;-61
2021/04/16 01:56:25;;;;;;;8.27;5.10;;;;;;;-1.37;100.00;96626.84;1027765;28;20018;-62
2021/04/16 01:57:00;;;;;;;9.10;4.40;;;;;;;-1.38;100.00;96632.97;1023717;29;20370;-61
2021/04/16 01:57:33;;;;;;;8.98;5.20;;;;;;;-1.39;100.00;96620.91;1023729;29;20106;-61
2021/04/16 01:58:04;;;;;;;7.50;4.78;;;;;;;-1.39;100.00;96625.28;1027779;28;20485;-61
2021/04/16 01:58:35;;;;;;;7.53;4.60;;;;;;;-1.39;100.00;96623.50;1023849;29;20019;-61
2021/04/16 01:59:07;;;;;;;8.05;4.53;;;;;;;-1.39;100.00;96620.91;1023695;29;20023;-61
2021/04/16 01:59:39;;;;;;;7.47;4.90;;;;;;;-1.39;100.00;96620.91;1027784;28;20550;-61
2021/04/16 02:00:23;;;;;;;10.38;4.28;;;;;;;-1.39;100.00;96626.09;1027679;28;20065;-60
2021/04/16 02:00:54;;;;;;;6.63;4.30;;;;;;;-1.41;100.00;96622.75;1019686;29;20016;-61
2021/04/16 02:01:25;;;;;;;8.50;5.22;;;;;;;-1.41;100.00;96622.75;1027826;28;20105;-62
2021/04/16 02:01:57;;;;;;;6.45;4.47;;;;;;;-1.42;100.00;96620.22;1027649;28;20110;-61
2021/04/16 02:02:31;;;;;;;7.95;4.35;;;;;;;-1.42;100.00;96620.22;1023767;29;20130;-62
2021/04/16 02:03:01;;;;;;;6.97;4.65;;;;;;;-1.43;100.00;96619.41;1019715;29;20520;-60
2021/04/16 02:03:32;;;;;;;6.78;4.70;;;;;;;-1.43;100.00;96619.41;1023583;29;20035;-61
2021/04/16 02:04:03;;;;;;;8.13;4.65;;;;;;;-1.44;100.00;96620.31;1027592;28;20018;-61
2021/04/16 02:04:34;;;;;;;7.63;4.75;;;;;;;-1.44;100.00;96622.91;1023688;29;20023;-61
2021/04/16 02:05:06;;;;;;;8.05;4.35;;;;;;;-1.45;100.00;96623.81;1019842;29;20080;-61
2021/04/16 02:05:37;;;;;;;8.60;5.15;;;;;;;-1.44;100.00;96622.91;1019831;29;20020;-62
2021/04/16 02:06:08;;;;;;;8.57;4.70;;;;;;;-1.41;100.00;96617.53;1019615;29;20020;-61
2021/04/16 02:06:38;;;;;;;8.00;4.55;;;;;;;-1.43;100.00;96619.41;1019748;29;20019;-61
2021/04/16 02:07:09;;;;;;;9.25;5.13;;;;;;;-1.43;100.00;96621.13;1031791;28;20022;-62
2021/04/16 02:07:40;;;;;;;9.35;5.03;;;;;;;-1.45;100.00;96620.38;1023804;29;20442;-61
2021/04/16 02:08:11;;;;;;;8.55;4.93;;;;;;;-1.47;100.00;96619.63;1027745;28;20015;-61
2021/04/16 02:08:42;;;;;;;8.40;5.03;;;;;;;-1.49;100.00;96618.88;1031714;28;20018;-60
2021/04/16 02:09:15;;;;;;;7.88;5.13;;;;;;;-1.56;100.00;96611.41;1023795;28;20110;-60
2021/04/16 02:09:46;;;;;;;7.78;4.78;;;;;;;-1.48;100.00;96624.03;1027752;28;20022;-61
2021/04/16 02:10:17;;;;;;;10.57;4.97;;;;;;;-1.49;100.00;96614.50;1023693;28;20026;-60
2021/04/16 02:10:48;;;;;;;7.05;4.50;;;;;;;-1.47;100.00;96617.88;1027711;28;20025;-61
2021/04/16 02:11:19;;;;;;;7.18;4.82;;;;;;;-1.48;100.00;96616.22;1027740;28;20030;-62
2021/04/16 02:11:50;;;;;;;7.45;4.57;;;;;;;-1.48;100.00;96616.22;1027731;28;20056;-60
2021/04/16 02:12:22;;;;;;;8.40;5.07;;;;;;;-1.49;100.00;96614.50;1031448;28;20081;-61
2021/04/16 02:12:52;;;;;;;6.82;4.63;;;;;;;-1.50;100.00;96612.81;1019826;29;20497;-61
2021/04/16 02:13:23;;;;;;;7.03;4.43;;;;;;;-1.49;100.00;96619.72;1027704;28;20022;-62
2021/04/16 02:13:54;;;;;;;8.32;5.15;;;;;;;-1.50;100.00;96609.38;1027580;28;20042;-61
2021/04/16 02:14:26;;;;;;;7.43;4.85;;;;;;;-1.50;100.00;96612.00;1027650;28;20106;-61
2021/04/16 02:14:57;;;;;;;9.63;5.05;;;;;;;-1.46;100.00;96613.50;1027688;28;20077;-60
2021/04/16 02:15:28;;;;;;;6.50;4.43;;;;;;;-1.47;100.00;96612.66;1031677;28;20117;-62
2021/04/16 02:15:58;;;;;;;10.43;5.10;;;;;;;-1.49;100.00;96614.50;1023681;29;20510;-61
2021/04/16 02:16:29;;;;;;;9.60;5.20;;;;;;;-1.49;100.00;96609.31;1031618;28;20017;-60
2021/04/16 02:17:04;;;;;;;7.97;5.85;;;;;;;-1.50;100.00;96612.81;1027696;28;20045;-61
2021/04/16 02:17:34;;;;;;;7.60;4.50;;;;;;;-1.52;100.00;96607.69;1027745;28;20046;-60
2021/04/16 02:18:05;;;;;;;7.78;4.85;;;;;;;-1.54;100.00;96606.13;1031690;28;20023;-62
2021/04/16 02:18:36;;;;;;;7.32;4.65;;;;;;;-1.51;100.00;96616.38;1031573;28;20089;-61
2021/04/16 02:19:07;;;;;;;7.03;4.88;;;;;;;-1.54;100.00;96612.16;1023744;29;20070;-61
2021/04/16 02:19:37;;;;;;;6.30;4.57;;;;;;;-1.54;100.00;96614.75;1031676;28;20488;-60
2021/04/16 02:20:11;;;;;;;9.23;5.47;;;;;;;-1.56;100.00;96613.19;1031678;28;20014;-60
2021/04/16 02:20:42;;;;;;;6.60;4.47;;;;;;;-1.58;100.00;96604.63;1035656;28;20017;-62
2021/04/16 02:21:13;;;;;;;8.02;5.53;;;;;;;-1.56;100.00;96613.19;1031688;28;20249;-60
2021/04/16 02:21:44;;;;;;;7.55;4.68;;;;;;;-1.56;100.00;96610.56;1023643;28;20019;-61
2021/04/16 02:22:17;;;;;;;6.93;4.60;;;;;;;-1.56;100.00;96607.97;1031541;28;20015;-61
2021/04/16 02:22:48;;;;;;;7.65;4.68;;;;;;;-1.57;100.00;96611.47;1035612;28;20499;-62
2021/04/16 02:23:18;;;;;;;8.65;4.22;;;;;;;-1.55;100.00;96609.63;1023705;28;20022;-60
2021/04/16 02:23:49;;;;;;;7.20;5.03;;;;;;;-1.56;100.00;96610.56;1031603;28;20492;-60
2021/04/16 02:24:20;;;;;;;9.88;4.57;;;;;;;-1.65;100.00;96598.06;1027709;28;20026;-61
2021/04/16 02:24:52;;;;;;;7.80;4.50;;;;;;;-1.58;100.00;96610.66;1031577;28;20476;-62
2021/04/16 02:25:23;;;;;;;9.98;4.70;;;;;;;-1.58;100.00;96615.03;1027656;28;20496;-62
2021/04/16 02:25:53;;;;;;;7.07;4.72;;;;;;;-1.58;100.00;96605.44;1023587;29;20259;-62
2021/04/16 02:26:24;;;;;;;7.00;4.60;;;;;;;-1.57;100.00;96614.09;1019687;29;20030;-61
2021/04/16 02:26:55;;;;;;;9.02;4.63;;;;;;;-1.58;100.00;96615.88;1027536;28;20183;-61
2021/04/16 02:27:26;;;;;;;7.40;4.50;;;;;;;-1.59;100.00;96611.56;1031671;28;20018;-61
2021/04/16 02:27:56;;;;;;;8.90;4.20;;;;;;;-1.59;100.00;96605.53;1023639;28;20091;-61
2021/04/16 02:28:27;;;;;;;7.63;4.80;;;;;;;-1.58;100.00;96610.66;1035668;28;20252;-61
2021/04/16 02:28:58;;;;;;;7.45;4.43;;;;;;;-1.60;100.00;96611.66;1023628;29;20073;-61